N647TH KDEN-
Flight info
| Callsign | N647TH |
|---|---|
| Flight time | N/A |
| Altitude | VFR |
| Route | VFR SOUTH |
| Aircraft | C172/L-VGD/C |
Departure
| Time | 2026-05-07 03:16 |
|---|---|
| Airport | Denver International Airport (KDEN) |
Arrival
| Time | N/A |
|---|---|
| Airport | - |
| Time | Latitude | Longitude | Altitude | Speed | Heading |
|---|---|---|---|---|---|
| 2026-05-07 03:02 | 39.83885 | -104.66534 | 5361 ft | 0 kts | 11° |
| 2026-05-07 03:05 | 39.83891 | -104.66532 | 5361 ft | 4 kts | 14° |
| 2026-05-07 03:05 | 39.83934 | -104.66489 | 5361 ft | 10 kts | 53° |
| 2026-05-07 03:05 | 39.83967 | -104.66403 | 5361 ft | 11 kts | 65° |
| 2026-05-07 03:05 | 39.84013 | -104.66319 | 5361 ft | 11 kts | 77° |
| 2026-05-07 03:06 | 39.84027 | -104.66258 | 5361 ft | 10 kts | 38° |
| 2026-05-07 03:06 | 39.84103 | -104.66249 | 5361 ft | 13 kts | 360° |
| 2026-05-07 03:06 | 39.84208 | -104.66248 | 5361 ft | 17 kts | 359° |
| 2026-05-07 03:06 | 39.84339 | -104.66247 | 5361 ft | 21 kts | 0° |
| 2026-05-07 03:07 | 39.84489 | -104.66246 | 5361 ft | 22 kts | 0° |
| 2026-05-07 03:07 | 39.84630 | -104.66244 | 5361 ft | 19 kts | 1° |
| 2026-05-07 03:07 | 39.84766 | -104.66243 | 5361 ft | 20 kts | 1° |
| 2026-05-07 03:07 | 39.84905 | -104.66241 | 5361 ft | 20 kts | 1° |
| 2026-05-07 03:08 | 39.85049 | -104.66239 | 5361 ft | 21 kts | 0° |
| 2026-05-07 03:08 | 39.85193 | -104.66237 | 5361 ft | 20 kts | 0° |
| 2026-05-07 03:08 | 39.85319 | -104.66236 | 5361 ft | 17 kts | 1° |
| 2026-05-07 03:08 | 39.85434 | -104.66235 | 5361 ft | 16 kts | 0° |
| 2026-05-07 03:09 | 39.85542 | -104.66234 | 5361 ft | 15 kts | 0° |
| 2026-05-07 03:09 | 39.85614 | -104.66233 | 5361 ft | 0 kts | 0° |
| 2026-05-07 03:09 | 39.85645 | -104.66231 | 5361 ft | 9 kts | 13° |
| 2026-05-07 03:10 | 39.85678 | -104.66171 | 5361 ft | 11 kts | 91° |
| 2026-05-07 03:10 | 39.85675 | -104.66062 | 5362 ft | 11 kts | 89° |
| 2026-05-07 03:10 | 39.85675 | -104.65937 | 5361 ft | 16 kts | 91° |
| 2026-05-07 03:10 | 39.85674 | -104.65789 | 5361 ft | 17 kts | 90° |
| 2026-05-07 03:11 | 39.85672 | -104.65636 | 5361 ft | 17 kts | 90° |
| 2026-05-07 03:11 | 39.85672 | -104.65485 | 5361 ft | 17 kts | 90° |
| 2026-05-07 03:11 | 39.85670 | -104.65331 | 5361 ft | 18 kts | 92° |
| 2026-05-07 03:11 | 39.85670 | -104.65166 | 5361 ft | 19 kts | 90° |
| 2026-05-07 03:12 | 39.85669 | -104.64989 | 5361 ft | 20 kts | 91° |
| 2026-05-07 03:12 | 39.85667 | -104.64818 | 5361 ft | 18 kts | 90° |
| 2026-05-07 03:12 | 39.85666 | -104.64651 | 5361 ft | 19 kts | 91° |
| 2026-05-07 03:12 | 39.85664 | -104.64483 | 5361 ft | 18 kts | 91° |
| 2026-05-07 03:13 | 39.85663 | -104.64346 | 5361 ft | 13 kts | 93° |
| 2026-05-07 03:13 | 39.85674 | -104.64270 | 5361 ft | 7 kts | 70° |
| 2026-05-07 03:13 | 39.85668 | -104.64248 | 5361 ft | 0 kts | 198° |
| 2026-05-07 03:14 | 39.85559 | -104.64195 | 5362 ft | 16 kts | 155° |
| 2026-05-07 03:15 | 39.85458 | -104.64145 | 5362 ft | 14 kts | 166° |
| 2026-05-07 03:15 | 39.85290 | -104.64141 | 5360 ft | 43 kts | 180° |
| 2026-05-07 03:15 | 39.84875 | -104.64148 | 5378 ft | 70 kts | 181° |
| 2026-05-07 03:15 | 39.84360 | -104.64150 | 5486 ft | 76 kts | 181° |
| 2026-05-07 03:16 | 39.83820 | -104.64182 | 5612 ft | 81 kts | 184° |
| 2026-05-07 03:16 | 39.83246 | -104.64218 | 5760 ft | 84 kts | 180° |
| 2026-05-07 03:16 | 39.82659 | -104.64104 | 5925 ft | 86 kts | 170° |
| 2026-05-07 03:16 | 39.82097 | -104.63913 | 6158 ft | 79 kts | 168° |
| 2026-05-07 03:17 | 39.81531 | -104.63688 | 6195 ft | 91 kts | 159° |
| 2026-05-07 03:17 | 39.81258 | -104.62975 | 6332 ft | 101 kts | 86° |
| 2026-05-07 03:17 | 39.81360 | -104.62063 | 6460 ft | 104 kts | 88° |
| 2026-05-07 03:17 | 39.81478 | -104.61126 | 6599 ft | 105 kts | 88° |
| 2026-05-07 03:18 | 39.81385 | -104.60248 | 6706 ft | 95 kts | 139° |
| 2026-05-07 03:18 | 39.80965 | -104.59581 | 6806 ft | 97 kts | 137° |
| 2026-05-07 03:18 | 39.80535 | -104.58903 | 6895 ft | 98 kts | 137° |
| 2026-05-07 03:18 | 39.80098 | -104.58221 | 6983 ft | 98 kts | 137° |
| 2026-05-07 03:19 | 39.79538 | -104.57891 | 7070 ft | 88 kts | 193° |
| 2026-05-07 03:19 | 39.78951 | -104.58107 | 7159 ft | 89 kts | 218° |
| 2026-05-07 03:19 | 39.78511 | -104.58657 | 7268 ft | 88 kts | 226° |
| 2026-05-07 03:19 | 39.78073 | -104.59222 | 7363 ft | 89 kts | 226° |
| 2026-05-07 03:20 | 39.77627 | -104.59787 | 7478 ft | 89 kts | 227° |
| 2026-05-07 03:20 | 39.77180 | -104.60344 | 7583 ft | 90 kts | 227° |
| 2026-05-07 03:20 | 39.76713 | -104.60924 | 7616 ft | 97 kts | 227° |
| 2026-05-07 03:20 | 39.76204 | -104.61552 | 7623 ft | 104 kts | 226° |
| 2026-05-07 03:21 | 39.75663 | -104.62216 | 7620 ft | 109 kts | 227° |
| 2026-05-07 03:21 | 39.75116 | -104.62887 | 7617 ft | 108 kts | 226° |
| 2026-05-07 03:21 | 39.74570 | -104.63554 | 7610 ft | 105 kts | 226° |
| 2026-05-07 03:21 | 39.74052 | -104.64187 | 7604 ft | 102 kts | 226° |
| 2026-05-07 03:22 | 39.73531 | -104.64823 | 7567 ft | 101 kts | 226° |
| 2026-05-07 03:22 | 39.73019 | -104.65452 | 7481 ft | 106 kts | 226° |
| 2026-05-07 03:22 | 39.72467 | -104.66127 | 7371 ft | 111 kts | 226° |
| 2026-05-07 03:22 | 39.71899 | -104.66822 | 7251 ft | 112 kts | 225° |
| 2026-05-07 03:23 | 39.71325 | -104.67521 | 7132 ft | 114 kts | 225° |
| 2026-05-07 03:23 | 39.70754 | -104.68218 | 7078 ft | 109 kts | 224° |
| 2026-05-07 03:23 | 39.70212 | -104.68878 | 7070 ft | 105 kts | 224° |
| 2026-05-07 03:23 | 39.69685 | -104.69521 | 7065 ft | 103 kts | 224° |
| 2026-05-07 03:24 | 39.69171 | -104.70147 | 7066 ft | 101 kts | 224° |
| 2026-05-07 03:24 | 39.68659 | -104.70769 | 7066 ft | 100 kts | 224° |
| 2026-05-07 03:24 | 39.68148 | -104.71393 | 7066 ft | 101 kts | 225° |
| 2026-05-07 03:24 | 39.67641 | -104.72010 | 7065 ft | 101 kts | 224° |
| 2026-05-07 03:25 | 39.67469 | -104.72221 | 7066 ft | 101 kts | 225° |